Time;durP1;ratioP1;P1;durP2;ratioP2;P2;SDS_P1;SDS_P2;PMS_P1;PMS_P2;Temp;Humidity;BMP_temperature;BMP_pressure;BME280_temperature;BME280_humidity;BME280_pressure;Samples;Min_cycle;Max_cycle;Signal;HPM_P1;HPM_P2
2022/07/15 00:00:20;;;;;;;1.33;1.33;;;25.10;67.20;;;;;;5087351;28;43763;-69
2022/07/15 00:02:49;;;;;;;1.30;1.30;;;25.30;66.60;;;;;;5086269;27;43972;-69
2022/07/15 00:05:17;;;;;;;1.47;1.47;;;25.50;66.10;;;;;;5087076;27;43949;-69
2022/07/15 00:07:46;;;;;;;1.37;1.37;;;25.60;65.50;;;;;;5087208;27;43907;-69
2022/07/15 00:10:18;;;;;;;1.40;1.40;;;25.70;65.10;;;;;;5086146;28;44096;-69
2022/07/15 00:12:47;;;;;;;1.40;1.40;;;25.80;64.60;;;;;;5087033;27;44001;-69
2022/07/15 00:15:15;;;;;;;1.20;1.20;;;25.90;64.40;;;;;;5086823;28;43952;-69
2022/07/15 00:17:43;;;;;;;1.30;1.30;;;25.80;64.40;;;;;;5087578;28;44384;-70
2022/07/15 00:20:13;;;;;;;1.30;1.30;;;25.60;64.90;;;;;;5087336;27;43881;-70
2022/07/15 00:22:41;;;;;;;1.40;1.40;;;25.50;65.70;;;;;;5086420;28;43765;-70
2022/07/15 00:25:10;;;;;;;1.30;1.30;;;25.30;66.10;;;;;;5086726;28;43762;-70
2022/07/15 00:27:50;;;;;;;1.10;1.10;;;25.10;66.80;;;;;;5087145;28;43947;-70
2022/07/15 00:30:18;;;;;;;1.20;1.20;;;24.90;67.30;;;;;;5087355;27;43964;-69
2022/07/15 00:32:46;;;;;;;1.23;1.23;;;24.80;67.50;;;;;;5085186;28;46163;-70
2022/07/15 00:35:15;;;;;;;1.40;1.40;;;24.70;67.90;;;;;;5085200;28;43458;-70
2022/07/15 00:37:43;;;;;;;1.20;1.20;;;24.60;68.90;;;;;;5086780;28;43418;-69
2022/07/15 00:40:12;;;;;;;1.30;1.30;;;24.50;68.30;;;;;;5084837;28;44007;-68
2022/07/15 00:42:46;;;;;;;1.20;1.20;;;24.40;68.30;;;;;;5086352;27;44791;-69
2022/07/15 00:45:15;;;;;;;1.40;1.40;;;24.40;68.60;;;;;;5086421;27;43915;-69
2022/07/15 00:47:43;;;;;;;1.17;1.17;;;24.40;68.70;;;;;;5085107;28;43919;-69
2022/07/15 00:50:11;;;;;;;1.20;1.20;;;24.30;68.70;;;;;;5087050;28;43437;-69
2022/07/15 00:52:42;;;;;;;1.20;1.20;;;24.30;69.10;;;;;;5084735;28;45999;-70
2022/07/15 00:55:10;;;;;;;1.30;1.30;;;24.30;69.40;;;;;;5084790;28;43884;-69
2022/07/15 00:57:39;;;;;;;1.30;1.30;;;24.40;69.40;;;;;;5086835;27;43407;-69
2022/07/15 01:00:11;;;;;;;1.33;1.33;;;24.50;69.10;;;;;;5085853;27;44076;-70
2022/07/15 01:02:39;;;;;;;1.30;1.30;;;24.60;68.80;;;;;;5086228;27;44008;-70
2022/07/15 01:05:10;;;;;;;1.20;1.20;;;24.70;68.40;;;;;;5086396;27;43884;-71
2022/07/15 01:07:39;;;;;;;1.20;1.20;;;24.80;67.90;;;;;;5084981;28;43973;-70
2022/07/15 01:10:09;;;;;;;1.33;1.33;;;25.00;67.60;;;;;;5085762;28;43451;-70
2022/07/15 01:12:38;;;;;;;1.20;1.20;;;25.10;67.00;;;;;;5084907;27;44700;-70
2022/07/15 01:15:07;;;;;;;1.20;1.20;;;25.30;66.40;;;;;;5088497;28;44101;-70
2022/07/15 01:17:35;;;;;;;1.30;1.30;;;25.50;65.90;;;;;;5082722;28;43393;-69
2022/07/15 01:20:10;;;;;;;1.20;1.20;;;25.60;65.50;;;;;;5069387;28;43932;-68
2022/07/15 01:22:49;;;;;;;1.42;1.42;;;25.70;65.00;;;;;;5068587;28;45641;-70
2022/07/15 01:25:18;;;;;;;1.17;1.17;;;25.80;64.70;;;;;;5068601;28;43984;-70
2022/07/15 01:27:46;;;;;;;1.27;1.27;;;25.90;64.40;;;;;;5068940;28;43982;-70
2022/07/15 01:30:21;;;;;;;1.38;1.38;;;25.80;64.40;;;;;;5069132;28;44005;-71
2022/07/15 01:32:50;;;;;;;1.20;1.20;;;25.60;64.90;;;;;;5070171;28;43955;-70
2022/07/15 01:35:18;;;;;;;1.30;1.30;;;25.50;65.50;;;;;;5069906;28;43928;-70
2022/07/15 01:37:50;;;;;;;1.20;1.20;;;25.30;66.00;;;;;;5068861;28;44045;-70
2022/07/15 01:40:18;;;;;;;1.40;1.40;;;25.00;66.60;;;;;;5058981;28;43437;-71
2022/07/15 01:42:47;;;;;;;1.25;1.25;;;24.90;67.20;;;;;;5065009;28;44028;-69
2022/07/15 01:45:16;;;;;;;1.07;1.07;;;24.70;67.40;;;;;;5087731;28;45127;-69
2022/07/15 01:47:47;;;;;;;1.33;1.33;;;24.70;67.80;;;;;;5087960;28;43465;-71
2022/07/15 01:50:27;;;;;;;1.20;1.20;;;24.60;68.00;;;;;;5088249;28;44094;-70
2022/07/15 01:52:59;;;;;;;1.13;1.13;;;24.50;68.20;;;;;;5089175;28;44660;-70
2022/07/15 01:55:29;;;;;;;1.20;1.20;;;24.40;68.30;;;;;;5087588;28;44028;-70
2022/07/15 01:57:58;;;;;;;1.20;1.20;;;24.40;68.50;;;;;;5087814;28;43933;-70
2022/07/15 02:00:27;;;;;;;1.40;1.40;;;24.30;68.50;;;;;;5088088;28;43453;-70
2022/07/15 02:02:55;;;;;;;1.30;1.30;;;24.30;68.60;;;;;;5087605;28;43891;-69
2022/07/15 02:05:23;;;;;;;1.30;1.30;;;24.30;69.20;;;;;;5089056;27;43919;-71
2022/07/15 02:07:53;;;;;;;1.30;1.30;;;24.30;69.40;;;;;;5087394;28;43937;-71
2022/07/15 02:10:24;;;;;;;1.10;1.10;;;24.40;69.40;;;;;;5088062;27;43440;-70
2022/07/15 02:12:53;;;;;;;1.20;1.20;;;24.40;69.10;;;;;;5087490;28;46893;-70
2022/07/15 02:15:27;;;;;;;1.40;1.40;;;24.50;69.60;;;;;;5087312;27;44010;-69
2022/07/15 02:17:59;;;;;;;1.40;1.40;;;24.70;68.40;;;;;;5081600;28;44056;-69
2022/07/15 02:20:30;;;;;;;1.40;1.40;;;24.80;67.90;;;;;;5068331;28;43974;-71
2022/07/15 02:22:58;;;;;;;1.40;1.40;;;25.00;67.50;;;;;;5067736;28;43977;-70
2022/07/15 02:25:28;;;;;;;1.30;1.30;;;25.10;66.90;;;;;;5068096;28;44005;-70
2022/07/15 02:27:57;;;;;;;1.30;1.30;;;25.30;66.40;;;;;;5067598;28;44053;-70
2022/07/15 02:30:25;;;;;;;1.20;1.20;;;25.40;65.80;;;;;;5063079;28;43347;-68
2022/07/15 02:32:54;;;;;;;1.48;1.48;;;25.60;65.40;;;;;;5061170;28;46121;-70
2022/07/15 02:35:22;;;;;;;1.30;1.30;;;25.70;65.00;;;;;;5062672;28;43990;-69
2022/07/15 02:37:50;;;;;;;1.40;1.40;;;25.80;64.80;;;;;;5062547;28;43982;-70
2022/07/15 02:40:19;;;;;;;1.30;1.30;;;25.80;64.40;;;;;;5087023;27;44043;-69
2022/07/15 02:42:52;;;;;;;1.30;1.30;;;25.70;64.60;;;;;;5086932;27;44188;-70
2022/07/15 02:45:21;;;;;;;1.30;1.30;;;25.50;65.90;;;;;;5086887;28;44364;-69
2022/07/15 02:47:49;;;;;;;1.20;1.20;;;25.30;65.70;;;;;;5086970;28;43414;-70
2022/07/15 02:50:25;;;;;;;1.60;1.30;;;25.10;66.90;;;;;;5078836;28;44086;-71
2022/07/15 02:52:53;;;;;;;1.13;1.13;;;24.90;66.90;;;;;;5067218;28;43849;-70
2022/07/15 02:55:21;;;;;;;1.23;1.23;;;24.80;68.10;;;;;;5067300;28;44981;-70
2022/07/15 02:57:50;;;;;;;1.30;1.30;;;24.70;67.60;;;;;;5067374;28;44081;-71
2022/07/15 03:00:19;;;;;;;1.30;1.30;;;24.50;67.70;;;;;;5067875;28;44267;-70
2022/07/15 03:02:50;;;;;;;1.20;1.20;;;24.50;68.00;;;;;;5066944;28;43850;-70
2022/07/15 03:05:19;;;;;;;1.23;1.20;;;24.40;68.10;;;;;;5067047;28;43943;-70
2022/07/15 03:07:47;;;;;;;1.10;1.10;;;24.30;68.20;;;;;;5067010;28;43955;-71
2022/07/15 03:10:19;;;;;;;1.30;1.30;;;24.30;68.40;;;;;;5067505;28;43901;-70
2022/07/15 03:12:48;;;;;;;1.30;1.30;;;24.30;68.60;;;;;;5066992;28;44086;-70
2022/07/15 03:15:19;;;;;;;1.30;1.30;;;24.30;68.70;;;;;;5067141;28;43942;-69
2022/07/15 03:17:48;;;;;;;1.20;1.20;;;24.30;68.80;;;;;;5068279;28;43853;-69
2022/07/15 03:20:16;;;;;;;1.27;1.27;;;24.20;69.40;;;;;;5067268;28;43502;-69
2022/07/15 03:22:48;;;;;;;1.50;1.50;;;24.30;69.60;;;;;;5066654;28;45863;-70
2022/07/15 03:25:16;;;;;;;1.40;1.40;;;24.30;69.30;;;;;;5068455;28;44056;-70
2022/07/15 03:27:44;;;;;;;1.30;1.30;;;24.40;69.00;;;;;;5066886;28;44066;-70
2022/07/15 03:30:14;;;;;;;1.30;1.30;;;24.50;68.50;;;;;;5067608;28;44060;-70
2022/07/15 03:32:44;;;;;;;1.17;1.17;;;24.70;68.10;;;;;;5066618;28;44969;-70
2022/07/15 03:35:12;;;;;;;1.27;1.27;;;24.80;67.60;;;;;;5065687;28;43997;-69
2022/07/15 03:37:40;;;;;;;1.33;1.33;;;25.00;67.30;;;;;;5085277;28;44099;-70
2022/07/15 03:40:10;;;;;;;1.20;1.20;;;25.10;66.50;;;;;;5067386;27;44088;-69
2022/07/15 03:42:38;;;;;;;1.30;1.30;;;25.30;66.00;;;;;;5073293;28;46343;-69
2022/07/15 03:45:08;;;;;;;1.30;1.30;;;25.50;65.50;;;;;;5068300;28;44040;-70
2022/07/15 03:47:36;;;;;;;1.20;1.20;;;25.60;65.00;;;;;;5066943;28;43884;-69
2022/07/15 03:50:10;;;;;;;2.30;1.30;;;25.70;64.60;;;;;;5080590;28;44112;-69
2022/07/15 03:52:40;;;;;;;1.35;1.35;;;25.70;64.30;;;;;;5057658;28;43975;-70
2022/07/15 03:55:11;;;;;;;1.40;1.40;;;25.60;64.30;;;;;;5068266;28;43877;-70
2022/07/15 03:57:39;;;;;;;1.30;1.30;;;25.50;64.80;;;;;;5066709;28;43445;-70
2022/07/15 04:00:08;;;;;;;1.40;1.40;;;25.30;65.10;;;;;;5082501;28;44004;-71
2022/07/15 04:02:42;;;;;;;1.30;1.30;;;25.10;65.10;;;;;;5084300;27;43733;-70
2022/07/15 04:05:16;;;;;;;1.20;1.20;;;24.90;66.20;;;;;;5087292;27;44097;-70
2022/07/15 04:07:44;;;;;;;1.30;1.30;;;24.80;66.60;;;;;;5071781;28;43936;-70
2022/07/15 04:10:12;;;;;;;1.30;1.30;;;24.60;66.90;;;;;;5068400;28;43955;-70
2022/07/15 04:12:42;;;;;;;1.70;1.30;;;24.50;67.20;;;;;;5075499;28;45634;-69
2022/07/15 04:15:15;;;;;;;1.20;1.20;;;24.50;67.50;;;;;;5082302;28;45004;-70
2022/07/15 04:17:45;;;;;;;1.20;1.20;;;24.40;67.60;;;;;;5083176;28;43378;-69
2022/07/15 04:20:19;;;;;;;1.40;1.40;;;24.40;67.90;;;;;;5086092;28;44031;-69
2022/07/15 04:22:50;;;;;;;1.40;1.40;;;24.30;68.00;;;;;;5085387;28;46669;-69
2022/07/15 04:25:20;;;;;;;1.37;1.37;;;24.30;68.00;;;;;;5086874;27;43979;-70
2022/07/15 04:27:49;;;;;;;1.20;1.20;;;24.30;68.20;;;;;;5085778;28;44227;-69
2022/07/15 04:30:22;;;;;;;1.20;1.20;;;24.20;68.20;;;;;;5086015;28;44012;-70
2022/07/15 04:32:50;;;;;;;1.30;1.30;;;24.20;68.30;;;;;;5085460;28;45371;-70
2022/07/15 04:35:21;;;;;;;1.13;1.13;;;24.20;69.00;;;;;;5059027;28;43966;-69
2022/07/15 04:37:57;;;;;;;1.40;1.40;;;24.20;68.90;;;;;;5074244;28;43936;-71
2022/07/15 04:40:25;;;;;;;1.30;1.30;;;24.30;68.80;;;;;;5085413;28;44150;-70
2022/07/15 04:42:53;;;;;;;1.53;1.50;;;24.40;68.60;;;;;;5085465;28;45894;-70
2022/07/15 04:45:22;;;;;;;1.30;1.30;;;24.50;68.20;;;;;;5085041;28;43934;-69
2022/07/15 04:47:50;;;;;;;1.30;1.30;;;24.70;67.70;;;;;;5070725;28;43999;-69
2022/07/15 04:53:14;;;;;;;1.67;1.67;;;25.00;66.70;;;;;;5085179;28;46962;-70
2022/07/15 04:55:45;;;;;;;1.40;1.40;;;25.20;66.10;;;;;;5085037;28;44019;-70
2022/07/15 04:58:14;;;;;;;1.67;1.57;;;25.30;65.40;;;;;;5074735;28;43992;-70
2022/07/15 05:00:43;;;;;;;1.52;1.52;;;25.50;64.90;;;;;;5067764;28;43910;-70
2022/07/15 05:03:13;;;;;;;1.50;1.50;;;25.60;64.40;;;;;;5065424;28;45019;-69
2022/07/15 05:05:43;;;;;;;1.20;1.20;;;25.60;63.70;;;;;;5065448;28;44804;-71
2022/07/15 05:08:14;;;;;;;1.50;1.50;;;25.60;63.10;;;;;;5065546;28;43437;-70
2022/07/15 05:10:47;;;;;;;1.47;1.47;;;25.40;62.80;;;;;;5057283;28;43454;-70
2022/07/15 05:13:15;;;;;;;1.40;1.40;;;25.20;63.20;;;;;;5080726;28;43859;-70
2022/07/15 05:15:46;;;;;;;1.60;1.60;;;25.10;63.30;;;;;;5084890;28;45792;-69
2022/07/15 05:18:21;;;;;;;1.40;1.40;;;24.90;65.00;;;;;;5084817;28;43820;-69
2022/07/15 05:20:53;;;;;;;1.47;1.47;;;24.70;65.60;;;;;;5083181;27;43851;-69
2022/07/15 05:23:23;;;;;;;1.30;1.30;;;24.60;66.70;;;;;;5065113;28;44040;-69
2022/07/15 05:25:56;;;;;;;1.50;1.50;;;24.50;66.60;;;;;;5065397;28;44054;-69
2022/07/15 05:28:24;;;;;;;1.20;1.20;;;24.40;66.60;;;;;;5065174;28;43993;-70
2022/07/15 05:30:52;;;;;;;1.60;1.60;;;24.30;66.10;;;;;;5065738;28;43861;-70
2022/07/15 05:33:22;;;;;;;1.33;1.33;;;24.30;66.40;;;;;;5065216;28;45790;-70
2022/07/15 05:35:52;;;;;;;1.50;1.50;;;24.30;67.40;;;;;;5068926;28;46084;-70
2022/07/15 05:38:26;;;;;;;1.40;1.40;;;24.20;67.60;;;;;;5084683;28;43978;-69
2022/07/15 05:40:54;;;;;;;1.40;1.40;;;24.20;67.80;;;;;;5073794;27;44125;-69
2022/07/15 05:43:25;;;;;;;1.40;1.40;;;24.20;67.80;;;;;;5065155;28;44089;-69
2022/07/15 05:45:53;;;;;;;1.20;1.20;;;24.10;67.00;;;;;;5065109;28;45002;-69
2022/07/15 05:48:25;;;;;;;1.60;1.53;;;24.10;68.00;;;;;;5064907;28;43979;-70
2022/07/15 05:50:56;;;;;;;1.50;1.50;;;24.20;68.00;;;;;;5065449;28;43578;-71
2022/07/15 05:53:25;;;;;;;1.40;1.40;;;24.30;67.40;;;;;;5071106;28;43899;-70
2022/07/15 05:55:53;;;;;;;1.40;1.40;;;24.40;67.10;;;;;;5061442;28;44748;-70
2022/07/15 05:58:23;;;;;;;1.47;1.47;;;24.50;66.70;;;;;;5058364;28;44183;-69
2022/07/15 06:00:52;;;;;;;1.40;1.40;;;24.60;66.20;;;;;;5057219;28;43929;-69
2022/07/15 06:03:22;;;;;;;1.47;1.47;;;24.80;65.80;;;;;;5065495;28;46254;-70
2022/07/15 06:05:50;;;;;;;1.60;1.50;;;25.00;65.10;;;;;;5068309;28;46068;-68
2022/07/15 06:08:20;;;;;;;1.60;1.60;;;25.10;64.20;;;;;;5067987;28;43400;-70
2022/07/15 06:10:48;;;;;;;1.60;1.50;;;25.30;64.20;;;;;;5068621;28;43877;-70
2022/07/15 06:13:16;;;;;;;1.63;1.50;;;25.40;63.40;;;;;;5068209;28;46632;-71
2022/07/15 06:15:46;;;;;;;1.20;1.20;;;25.50;63.60;;;;;;5068547;28;44864;-71
2022/07/15 06:18:21;;;;;;;1.60;1.60;;;25.60;63.40;;;;;;5068368;28;44124;-70
2022/07/15 06:20:50;;;;;;;1.52;1.42;;;25.60;63.30;;;;;;5068534;28;44019;-71
2022/07/15 06:23:20;;;;;;;1.60;1.60;;;25.40;63.70;;;;;;5067862;28;43956;-69
2022/07/15 06:25:48;;;;;;;1.20;1.20;;;25.30;64.40;;;;;;5068878;28;44172;-69
2022/07/15 06:28:16;;;;;;;1.47;1.47;;;25.10;64.60;;;;;;5069629;28;43932;-70
2022/07/15 06:30:45;;;;;;;1.30;1.30;;;24.90;65.30;;;;;;5070040;28;43962;-70
2022/07/15 06:33:13;;;;;;;1.30;1.30;;;24.70;66.00;;;;;;5069428;28;43939;-70
2022/07/15 06:35:42;;;;;;;1.20;1.20;;;24.60;66.40;;;;;;5070384;28;46055;-70
2022/07/15 06:38:12;;;;;;;1.20;1.20;;;24.50;66.80;;;;;;5088511;27;43956;-70
2022/07/15 06:40:44;;;;;;;1.40;1.40;;;24.40;67.10;;;;;;5087266;27;43425;-70
2022/07/15 06:43:12;;;;;;;1.20;1.20;;;24.30;67.30;;;;;;5087158;28;43959;-69
2022/07/15 06:45:56;;;;;;;1.17;1.17;;;24.30;67.70;;;;;;5087080;28;45860;-70
2022/07/15 06:48:24;;;;;;;1.40;1.40;;;24.20;67.90;;;;;;5075147;27;43389;-70
2022/07/15 06:50:55;;;;;;;1.30;1.30;;;24.10;67.90;;;;;;5069320;28;43995;-69
2022/07/15 06:53:23;;;;;;;1.20;1.20;;;24.10;68.00;;;;;;5073393;28;47179;-70
2022/07/15 06:55:52;;;;;;;1.30;1.30;;;24.10;68.20;;;;;;5086816;28;44670;-71
2022/07/15 06:58:21;;;;;;;1.40;1.30;;;24.10;68.40;;;;;;5087242;28;44083;-71
2022/07/15 07:00:50;;;;;;;1.17;1.17;;;24.10;69.10;;;;;;5064584;28;43493;-70
2022/07/15 07:03:18;;;;;;;1.27;1.27;;;24.10;69.00;;;;;;5047305;28;45632;-69
2022/07/15 07:06:08;;;;;;;1.37;1.37;;;24.20;68.90;;;;;;5052655;28;44862;-70
2022/07/15 07:08:36;;;;;;;1.30;1.30;;;24.30;68.30;;;;;;5088706;27;43374;-71
2022/07/15 07:11:05;;;;;;;1.23;1.23;;;24.40;67.80;;;;;;5088769;27;43965;-70
2022/07/15 07:13:33;;;;;;;1.13;1.13;;;24.50;66.90;;;;;;5088475;27;44063;-70
2022/07/15 07:16:01;;;;;;;1.30;1.30;;;24.70;66.70;;;;;;5088288;28;43991;-70
2022/07/15 07:18:30;;;;;;;1.40;1.40;;;24.90;66.10;;;;;;5087945;27;44066;-69
2022/07/15 07:20:58;;;;;;;1.10;1.10;;;25.10;65.60;;;;;;5088582;27;43950;-71
2022/07/15 07:23:26;;;;;;;1.30;1.30;;;25.20;65.20;;;;;;5078412;27;44860;-71
2022/07/15 07:25:54;;;;;;;1.20;1.20;;;25.30;64.80;;;;;;5068578;28;43451;-70
2022/07/15 07:28:24;;;;;;;1.30;1.30;;;25.40;64.70;;;;;;5068289;28;43956;-70
2022/07/15 07:30:54;;;;;;;1.30;1.30;;;25.50;64.40;;;;;;5068955;28;43409;-69
2022/07/15 07:33:22;;;;;;;1.00;1.00;;;25.50;64.20;;;;;;5068476;28;44066;-70
2022/07/15 07:35:51;;;;;;;1.30;1.30;;;25.40;64.50;;;;;;5068583;28;43964;-69
2022/07/15 07:38:19;;;;;;;1.30;1.30;;;25.30;65.10;;;;;;5068238;28;43960;-70
2022/07/15 07:40:50;;;;;;;1.20;1.20;;;25.00;65.40;;;;;;5079049;28;43965;-71
2022/07/15 07:43:18;;;;;;;1.20;1.20;;;24.80;65.90;;;;;;5086320;27;44322;-70
2022/07/15 07:45:48;;;;;;;1.20;1.20;;;24.70;66.60;;;;;;5076623;27;44075;-70
2022/07/15 07:48:17;;;;;;;1.13;1.13;;;24.50;66.90;;;;;;5072593;28;44085;-70
2022/07/15 07:50:45;;;;;;;1.23;1.23;;;24.40;67.30;;;;;;5088179;27;43311;-71
2022/07/15 07:53:13;;;;;;;1.13;1.13;;;24.30;67.60;;;;;;5087194;28;44769;-70
2022/07/15 07:55:41;;;;;;;1.40;1.40;;;24.30;68.00;;;;;;5087519;28;43995;-70
2022/07/15 07:58:10;;;;;;;1.13;1.13;;;24.20;68.10;;;;;;5076197;28;43819;-70
2022/07/15 08:00:38;;;;;;;1.10;1.10;;;24.10;68.20;;;;;;5086935;28;43968;-70
2022/07/15 08:03:07;;;;;;;1.10;1.10;;;24.10;68.40;;;;;;5087602;27;43915;-70
2022/07/15 08:05:35;;;;;;;1.10;1.10;;;24.10;68.60;;;;;;5085904;28;44895;-70
2022/07/15 08:08:22;;;;;;;1.10;1.10;;;24.00;68.60;;;;;;5087594;28;43447;-70
2022/07/15 08:10:51;;;;;;;1.27;1.27;;;24.00;68.80;;;;;;5087788;28;43939;-69
2022/07/15 08:13:20;;;;;;;1.20;1.20;;;24.00;68.70;;;;;;5086387;28;43895;-71
2022/07/15 08:15:48;;;;;;;1.20;1.20;;;24.00;69.50;;;;;;5067586;28;43981;-69
2022/07/15 08:18:26;;;;;;;1.20;1.20;;;24.00;68.90;;;;;;5074521;28;43989;-69
2022/07/15 08:20:54;;;;;;;1.30;1.30;;;24.00;69.50;;;;;;5068121;28;44043;-70
2022/07/15 08:23:22;;;;;;;1.20;1.20;;;24.00;69.30;;;;;;5066587;28;43923;-69
2022/07/15 08:25:51;;;;;;;1.20;1.20;;;24.10;68.80;;;;;;5067739;28;44017;-70
2022/07/15 08:28:19;;;;;;;1.40;1.30;;;24.30;68.40;;;;;;5067454;28;43447;-68
2022/07/15 08:30:47;;;;;;;1.20;1.20;;;24.40;68.10;;;;;;5067922;28;43907;-69
2022/07/15 08:33:15;;;;;;;1.30;1.30;;;24.50;67.10;;;;;;5066155;28;45778;-70
2022/07/15 08:35:44;;;;;;;1.27;1.27;;;24.70;66.80;;;;;;5067710;28;43884;-70
2022/07/15 08:38:13;;;;;;;1.20;1.20;;;24.90;66.50;;;;;;5067396;28;44018;-69
2022/07/15 08:40:42;;;;;;;1.37;1.30;;;25.00;66.60;;;;;;5082208;28;43892;-70
2022/07/15 08:43:10;;;;;;;1.23;1.23;;;25.10;65.50;;;;;;5086759;28;43754;-69
2022/07/15 08:45:42;;;;;;;1.10;1.10;;;25.20;65.80;;;;;;5082953;27;44148;-71
2022/07/15 08:48:10;;;;;;;1.20;1.20;;;25.30;64.90;;;;;;5084395;28;43931;-69
2022/07/15 08:50:38;;;;;;;1.20;1.20;;;25.20;65.10;;;;;;5080764;27;43968;-70
2022/07/15 08:53:07;;;;;;;1.20;1.20;;;25.00;65.40;;;;;;5086709;28;43966;-70
2022/07/15 08:55:35;;;;;;;1.10;1.10;;;24.80;65.40;;;;;;5086902;27;44203;-70
2022/07/15 08:58:03;;;;;;;1.27;1.27;;;24.70;66.40;;;;;;5085351;28;43943;-70
2022/07/15 09:00:31;;;;;;;1.10;1.10;;;24.50;66.90;;;;;;5086967;28;43872;-70
2022/07/15 09:03:00;;;;;;;1.30;1.30;;;24.40;67.10;;;;;;5086258;28;43726;-70
2022/07/15 09:05:30;;;;;;;1.47;1.47;;;24.30;67.60;;;;;;5086444;27;44034;-69
2022/07/15 09:08:00;;;;;;;1.20;1.20;;;24.20;67.90;;;;;;5086586;28;43852;-70
2022/07/15 09:10:47;;;;;;;1.27;1.27;;;24.10;68.00;;;;;;5069061;28;43997;-68
2022/07/15 09:13:24;;;;;;;1.20;1.20;;;24.10;68.00;;;;;;5061207;28;45026;-69
2022/07/15 09:15:52;;;;;;;1.23;1.23;;;24.00;69.00;;;;;;5071761;28;43970;-69
2022/07/15 09:18:21;;;;;;;1.20;1.20;;;24.00;68.40;;;;;;5066808;28;43847;-69
2022/07/15 09:20:50;;;;;;;1.17;1.17;;;24.00;68.70;;;;;;5067214;28;44098;-70
2022/07/15 09:23:20;;;;;;;1.10;1.10;;;24.00;70.00;;;;;;5066755;28;43751;-69
2022/07/15 09:25:50;;;;;;;1.10;1.10;;;24.00;69.20;;;;;;5066696;28;44354;-71
2022/07/15 09:28:18;;;;;;;1.10;1.10;;;24.00;69.00;;;;;;5082478;28;43844;-70
2022/07/15 09:33:36;;;;;;;1.00;1.00;;;24.30;69.00;;;;;;5066686;28;43922;-69
2022/07/15 09:36:09;;;;;;;1.17;1.17;;;24.40;67.90;;;;;;5088919;28;43944;-70
2022/07/15 09:38:41;;;;;;;1.30;1.30;;;24.50;67.50;;;;;;5070443;27;43975;-69
2022/07/15 09:41:12;;;;;;;1.30;1.30;;;24.60;67.10;;;;;;5077037;28;43525;-69
2022/07/15 09:43:49;;;;;;;1.23;1.23;;;24.80;66.60;;;;;;5089584;28;43673;-70
2022/07/15 09:46:17;;;;;;;1.20;1.20;;;25.00;66.10;;;;;;5089603;28;44027;-70
2022/07/15 09:48:47;;;;;;;1.10;1.10;;;25.10;65.70;;;;;;5081279;27;44010;-70
2022/07/15 09:51:16;;;;;;;0.97;0.97;;;25.20;65.30;;;;;;5070530;28;43987;-70
2022/07/15 09:53:44;;;;;;;1.10;1.10;;;25.30;65.00;;;;;;5070075;28;45036;-69
2022/07/15 09:56:16;;;;;;;1.00;1.00;;;25.30;64.90;;;;;;5078472;28;43993;-70
2022/07/15 09:58:45;;;;;;;1.20;1.20;;;25.10;64.70;;;;;;5086617;27;44051;-70
2022/07/15 10:01:13;;;;;;;1.30;1.30;;;25.00;66.10;;;;;;5068843;28;44159;-69
2022/07/15 10:03:41;;;;;;;1.10;1.10;;;24.80;65.90;;;;;;5079492;28;43960;-70
2022/07/15 10:06:10;;;;;;;1.20;1.20;;;24.60;66.40;;;;;;5086925;27;44286;-69
2022/07/15 10:08:38;;;;;;;1.20;1.20;;;24.50;66.90;;;;;;5076727;28;44078;-69
2022/07/15 10:11:10;;;;;;;0.90;0.90;;;24.40;67.30;;;;;;5070438;28;43987;-71
2022/07/15 10:13:55;;;;;;;1.13;1.13;;;24.30;67.60;;;;;;5069987;28;43973;-70
2022/07/15 10:16:32;;;;;;;1.30;1.30;;;24.20;67.80;;;;;;5070022;28;44020;-70
2022/07/15 10:19:08;;;;;;;1.07;1.07;;;24.10;68.00;;;;;;5069760;28;43882;-70
2022/07/15 10:21:39;;;;;;;1.00;1.00;;;24.10;68.20;;;;;;5085043;28;43355;-69
2022/07/15 10:24:16;;;;;;;1.10;1.10;;;24.10;68.40;;;;;;5089276;27;43944;-71
2022/07/15 10:26:51;;;;;;;1.20;1.10;;;24.00;68.40;;;;;;5087308;28;45086;-69
2022/07/15 10:29:20;;;;;;;1.10;1.10;;;24.00;68.50;;;;;;5089066;28;44025;-69
2022/07/15 10:31:56;;;;;;;1.27;1.27;;;24.00;68.60;;;;;;5071719;27;43861;-69
2022/07/15 10:34:29;;;;;;;1.20;1.20;;;24.00;68.70;;;;;;5069298;28;43991;-70
2022/07/15 10:36:58;;;;;;;1.17;1.17;;;23.90;68.50;;;;;;5089090;28;43893;-70
2022/07/15 10:39:27;;;;;;;1.10;1.10;;;23.90;68.60;;;;;;5088643;28;44088;-71
2022/07/15 10:41:57;;;;;;;1.40;1.40;;;23.90;68.80;;;;;;5063357;28;43328;-70
2022/07/15 10:44:27;;;;;;;1.47;1.40;;;23.90;69.30;;;;;;5069139;28;44712;-70
2022/07/15 10:47:20;;;;;;;1.50;1.10;;;24.00;69.30;;;;;;5075619;28;44017;-69
2022/07/15 10:49:48;;;;;;;1.30;1.30;;;24.10;69.00;;;;;;5088479;28;43937;-69
2022/07/15 10:52:17;;;;;;;1.73;1.30;;;24.20;68.70;;;;;;5089003;28;44151;-70
2022/07/15 10:54:50;;;;;;;1.33;1.33;;;24.30;68.30;;;;;;5088718;28;44764;-69
2022/07/15 10:57:20;;;;;;;1.43;1.40;;;24.50;67.70;;;;;;5088586;28;43502;-70
2022/07/15 10:59:51;;;;;;;1.40;1.40;;;24.60;67.30;;;;;;5083763;28;43948;-70
2022/07/15 11:02:20;;;;;;;1.60;1.50;;;24.80;66.80;;;;;;5074721;28;43940;-69
2022/07/15 11:04:49;;;;;;;1.30;1.30;;;24.90;66.40;;;;;;5088150;27;44025;-70
2022/07/15 11:07:30;;;;;;;1.47;1.47;;;25.00;66.60;;;;;;5082671;28;43883;-69
2022/07/15 11:10:14;;;;;;;1.50;1.50;;;25.10;65.30;;;;;;5068842;28;44077;-69
2022/07/15 11:13:09;;;;;;;1.40;1.40;;;25.10;64.10;;;;;;5067782;28;43531;-69
2022/07/15 11:15:39;;;;;;;1.27;1.27;;;25.00;64.70;;;;;;5045720;27;43686;-70
2022/07/15 11:18:07;;;;;;;1.40;1.40;;;24.80;65.10;;;;;;5075163;27;44010;-69
2022/07/15 11:20:38;;;;;;;1.30;1.30;;;24.70;65.60;;;;;;5075904;28;44077;-69
2022/07/15 11:23:07;;;;;;;1.37;1.37;;;24.50;66.50;;;;;;5069404;28;44059;-69
2022/07/15 11:25:37;;;;;;;1.27;1.27;;;24.40;67.00;;;;;;5068790;28;44077;-70
2022/07/15 11:28:07;;;;;;;1.50;1.50;;;24.30;67.40;;;;;;5069294;28;43928;-70
2022/07/15 11:30:39;;;;;;;1.33;1.33;;;24.20;67.60;;;;;;5088112;27;43929;-70
2022/07/15 11:33:09;;;;;;;1.30;1.30;;;24.10;67.70;;;;;;5088611;28;43898;-70
2022/07/15 11:35:49;;;;;;;1.20;1.20;;;24.10;68.00;;;;;;5087985;28;43939;-70
2022/07/15 11:38:17;;;;;;;1.60;1.60;;;24.10;68.20;;;;;;5077442;28;43802;-70
2022/07/15 11:46:18;;;;;;;1.30;1.30;;;24.00;68.50;;;;;;5068243;28;43888;-69
2022/07/15 11:48:47;;;;;;;1.53;1.40;;;23.90;68.50;;;;;;5068155;28;43433;-69
2022/07/15 11:51:15;;;;;;;1.30;1.30;;;23.90;68.60;;;;;;5083386;28;43319;-69
2022/07/15 11:53:44;;;;;;;1.40;1.40;;;23.90;69.30;;;;;;5088069;28;44458;-70
2022/07/15 11:56:13;;;;;;;1.40;1.40;;;23.90;69.80;;;;;;5087295;28;44957;-70
2022/07/15 11:58:42;;;;;;;1.67;1.53;;;24.00;69.10;;;;;;5084259;27;43898;-69
2022/07/15 12:01:11;;;;;;;1.30;1.30;;;24.10;68.40;;;;;;5068062;28;43904;-71
2022/07/15 12:03:41;;;;;;;1.30;1.30;;;24.20;67.90;;;;;;5068641;28;43971;-70
2022/07/15 12:06:12;;;;;;;1.50;1.50;;;24.30;67.50;;;;;;5068053;28;43944;-70
2022/07/15 12:08:45;;;;;;;1.43;1.43;;;24.40;67.40;;;;;;5068012;28;43935;-70
2022/07/15 12:11:18;;;;;;;1.30;1.30;;;24.50;67.10;;;;;;5068213;28;43921;-70
2022/07/15 12:13:49;;;;;;;1.40;1.40;;;24.70;67.00;;;;;;5086237;28;43995;-70
2022/07/15 12:16:20;;;;;;;1.50;1.50;;;24.80;66.60;;;;;;5087229;28;43996;-69
2022/07/15 12:18:50;;;;;;;1.20;1.20;;;24.90;66.40;;;;;;5087127;27;44080;-70
2022/07/15 12:21:18;;;;;;;1.70;1.60;;;25.00;66.10;;;;;;5085539;28;44154;-69
2022/07/15 12:24:06;;;;;;;2.50;1.83;;;25.00;65.70;;;;;;5067054;27;43669;-70
2022/07/15 12:26:35;;;;;;;1.63;1.63;;;25.00;65.30;;;;;;5067575;28;43917;-70
2022/07/15 12:29:03;;;;;;;3.97;2.43;;;24.80;65.80;;;;;;5069282;28;43896;-70
2022/07/15 12:31:33;;;;;;;2.03;1.93;;;24.70;66.40;;;;;;5078524;27;43919;-70
2022/07/15 12:34:03;;;;;;;1.87;1.87;;;24.50;66.50;;;;;;5068159;28;43395;-70
2022/07/15 12:36:33;;;;;;;2.20;2.10;;;24.40;67.00;;;;;;5067108;28;44037;-70
2022/07/15 12:39:06;;;;;;;2.83;2.20;;;24.30;67.40;;;;;;5067460;28;43925;-70
2022/07/15 12:41:35;;;;;;;2.87;2.10;;;24.20;67.60;;;;;;5067444;28;44337;-69
2022/07/15 12:44:04;;;;;;;2.33;2.10;;;24.10;67.80;;;;;;5067743;28;44039;-69
2022/07/15 12:46:55;;;;;;;2.13;2.03;;;24.10;68.00;;;;;;5067342;28;44044;-71
2022/07/15 12:49:45;;;;;;;2.33;2.23;;;24.00;68.30;;;;;;5061133;28;44072;-70
2022/07/15 12:52:15;;;;;;;2.87;2.67;;;24.00;68.40;;;;;;5086859;28;43801;-69
2022/07/15 12:54:43;;;;;;;2.60;2.40;;;24.00;68.40;;;;;;5087239;27;44060;-72
2022/07/15 12:57:26;;;;;;;2.20;2.10;;;23.90;68.50;;;;;;5086562;27;43958;-69
2022/07/15 12:59:55;;;;;;;2.80;2.37;;;23.90;68.50;;;;;;5086536;28;44095;-70
2022/07/15 13:02:23;;;;;;;2.70;2.50;;;23.90;68.50;;;;;;5086767;28;43840;-71
2022/07/15 13:04:52;;;;;;;2.70;2.50;;;23.90;69.30;;;;;;5086938;27;43805;-69
2022/07/15 13:07:21;;;;;;;2.50;2.40;;;23.90;69.60;;;;;;5086458;27;43923;-69
2022/07/15 13:09:49;;;;;;;2.60;2.40;;;24.00;69.30;;;;;;5082090;27;43766;-70
2022/07/15 13:12:17;;;;;;;2.70;2.50;;;24.00;69.00;;;;;;5070774;28;43895;-70
2022/07/15 13:14:45;;;;;;;2.70;2.50;;;24.10;68.20;;;;;;5071133;28;44020;-70